createdAt,value
2023-03-11T00:03:08.288Z,100730.66
2023-03-11T00:08:16.593Z,100722.34
2023-03-11T00:13:20.811Z,100722.25
2023-03-11T00:18:30.160Z,100747.88
2023-03-11T00:23:35.633Z,100738.78
2023-03-11T00:28:39.694Z,100744.06
2023-03-11T00:33:45.022Z,100767.63
2023-03-11T00:38:50.103Z,100777.06
2023-03-11T00:43:54.233Z,100773.91
2023-03-11T00:48:59.732Z,100775.78
2023-03-11T00:54:04.112Z,100782.31
2023-03-11T00:59:09.088Z,100792.06
2023-03-11T01:04:20.079Z,100793.63
2023-03-11T01:09:24.222Z,100808.25
2023-03-11T01:14:28.560Z,100799.44
2023-03-11T01:19:34.069Z,100814.28
2023-03-11T01:24:38.311Z,100806.75
2023-03-11T01:29:42.408Z,100810.81
2023-03-11T01:34:47.949Z,100817.16
2023-03-11T01:39:52.072Z,100812.03
2023-03-11T01:44:56.300Z,100809.00
2023-03-11T01:50:02.738Z,100827.84
2023-03-11T01:55:08.753Z,100822.19
2023-03-11T02:00:16.640Z,100815.44
2023-03-11T02:05:24.179Z,100806.53
2023-03-11T02:10:29.681Z,100808.03
2023-03-11T02:15:34.076Z,100819.69
2023-03-11T02:20:48.320Z,100821.66
2023-03-11T02:25:59.365Z,100824.00
2023-03-11T02:31:05.357Z,100819.41
2023-03-11T02:36:31.665Z,100818.41
2023-03-11T02:41:39.820Z,100818.13
2023-03-11T02:46:46.292Z,100815.09
2023-03-11T02:51:52.343Z,100811.88
2023-03-11T02:56:56.678Z,100812.63
2023-03-11T03:02:04.724Z,100819.81
2023-03-11T03:07:09.682Z,100826.25
2023-03-11T03:12:14.592Z,100834.13
2023-03-11T03:17:20.488Z,100844.69
2023-03-11T03:22:27.462Z,100856.03
2023-03-11T03:27:32.154Z,100861.66
2023-03-11T03:32:38.390Z,100868.28
2023-03-11T03:37:45.362Z,100878.94
2023-03-11T03:42:49.941Z,100881.78
2023-03-11T03:47:57.192Z,100887.06
2023-03-11T03:53:03.091Z,100895.63
2023-03-11T03:58:07.152Z,100888.84
2023-03-11T04:03:14.393Z,100907.91
2023-03-11T04:08:27.659Z,100890.78
2023-03-11T04:13:31.843Z,100893.34
2023-03-11T04:18:37.267Z,100897.69
2023-03-11T04:23:43.781Z,100907.09
2023-03-11T04:28:50.232Z,100912.28
2023-03-11T04:33:56.472Z,100899.63
2023-03-11T04:39:00.648Z,100902.06
2023-03-11T04:44:09.472Z,100909.72
2023-03-11T04:49:15.432Z,100913.03
2023-03-11T04:54:19.978Z,100910.63
2023-03-11T04:59:24.097Z,100912.63
2023-03-11T05:04:31.127Z,100911.81
2023-03-11T05:09:36.720Z,100916.13
2023-03-11T05:14:40.832Z,100929.81
2023-03-11T05:19:47.279Z,100929.22
2023-03-11T05:24:57.733Z,100939.44
2023-03-11T05:30:02.513Z,100948.97
2023-03-11T05:35:11.330Z,100957.59
2023-03-11T05:40:16.694Z,100940.03
2023-03-11T05:45:21.020Z,100947.22
2023-03-11T05:50:28.784Z,100953.50
2023-03-11T05:55:33.153Z,100967.19
2023-03-11T06:00:37.930Z,100968.97
2023-03-11T06:05:48.130Z,100969.13
2023-03-11T06:10:52.525Z,100975.91
2023-03-11T06:15:58.265Z,100981.91
2023-03-11T06:21:05.536Z,100982.09
2023-03-11T06:26:16.105Z,100996.84
2023-03-11T06:31:27.116Z,100997.81
2023-03-11T06:36:36.947Z,101009.72
2023-03-11T06:41:41.043Z,101019.66
2023-03-11T06:46:46.382Z,101024.69
2023-03-11T06:51:53.648Z,101040.94
2023-03-11T06:56:57.792Z,101041.91
2023-03-11T07:02:02.520Z,101055.50
2023-03-11T07:07:08.170Z,101050.91
2023-03-11T07:12:12.307Z,101055.53
2023-03-11T07:17:16.626Z,101055.59
2023-03-11T07:22:27.362Z,101058.59
2023-03-11T07:27:31.360Z,101063.19
2023-03-11T07:32:35.472Z,101063.06
2023-03-11T07:37:40.938Z,101073.00
2023-03-11T07:42:44.950Z,101076.00
2023-03-11T07:47:49.012Z,101082.19
2023-03-11T07:52:54.537Z,101086.34
2023-03-11T07:57:58.492Z,101098.69
2023-03-11T08:03:02.484Z,101082.75
2023-03-11T08:08:07.980Z,101085.53
2023-03-11T08:13:12.086Z,101095.25
2023-03-11T08:18:17.091Z,101089.22
2023-03-11T08:23:22.949Z,101087.75
2023-03-11T08:28:27.058Z,101089.78
2023-03-11T08:33:31.673Z,101100.47
2023-03-11T08:38:37.336Z,101115.03
2023-03-11T08:43:42.944Z,101104.72
2023-03-11T08:48:47.295Z,101117.59
2023-03-11T08:53:53.670Z,101118.16
2023-03-11T08:58:58.035Z,101111.66
2023-03-11T09:04:02.125Z,101108.97
2023-03-11T09:09:11.338Z,101109.16
2023-03-11T09:14:15.601Z,101110.16
2023-03-11T09:19:19.683Z,101111.31
2023-03-11T09:24:25.058Z,101093.31
2023-03-11T09:29:29.785Z,101066.00
2023-03-11T09:34:34.216Z,101081.94
2023-03-11T09:39:39.599Z,101074.31
2023-03-11T09:44:47.005Z,101074.22
2023-03-11T09:50:18.257Z,101087.50
2023-03-11T09:55:37.319Z,101091.22
2023-03-11T10:00:42.450Z,101095.75
2023-03-11T10:05:47.541Z,101088.22
2023-03-11T10:11:00.030Z,101107.00
2023-03-11T10:16:12.379Z,101110.16
2023-03-11T10:21:30.619Z,101119.47
2023-03-11T10:26:42.863Z,101147.44
2023-03-11T10:31:52.702Z,101131.38
2023-03-11T10:37:03.950Z,101120.63
2023-03-11T10:42:15.511Z,101133.28
2023-03-11T10:47:23.075Z,101139.19
2023-03-11T10:52:27.235Z,101131.03
2023-03-11T10:57:37.000Z,101129.22
2023-03-11T11:02:51.055Z,101124.25
2023-03-11T11:08:06.427Z,101129.16
2023-03-11T11:13:23.949Z,101120.56
2023-03-11T11:18:32.649Z,101131.72
2023-03-11T11:23:42.200Z,101131.22
2023-03-11T11:28:47.647Z,101122.13
2023-03-11T11:33:53.760Z,101109.34
2023-03-11T11:39:00.177Z,101106.88
2023-03-11T11:44:09.472Z,101092.28
2023-03-11T11:49:22.179Z,101086.44
2023-03-11T11:54:30.866Z,101088.25
2023-03-11T11:59:37.133Z,101086.31
2023-03-11T12:04:52.116Z,101074.50
2023-03-11T12:10:22.140Z,101064.09
2023-03-11T12:15:37.376Z,101058.72
2023-03-11T12:20:45.756Z,101052.31
2023-03-11T12:26:07.744Z,101047.72
2023-03-11T12:31:14.726Z,101051.00
2023-03-11T12:36:24.600Z,101038.19
2023-03-11T12:41:33.744Z,101043.19
2023-03-11T12:47:23.877Z,101033.59
2023-03-11T12:52:31.874Z,101026.91
2023-03-11T12:57:38.932Z,101016.25
2023-03-11T13:03:26.937Z,101029.47
2023-03-11T13:08:37.394Z,101025.81
2023-03-11T13:13:42.465Z,101027.34
2023-03-11T13:18:49.909Z,101022.53
2023-03-11T13:23:55.082Z,101023.88
2023-03-11T13:29:40.905Z,101021.88
2023-03-11T13:34:55.081Z,101038.25
2023-03-11T13:40:16.596Z,101018.97
2023-03-11T13:45:34.675Z,101025.00
2023-03-11T13:50:48.083Z,101022.72
2023-03-11T13:55:55.191Z,101025.66
2023-03-11T14:01:00.577Z,101027.59
2023-03-11T14:06:09.924Z,101036.22
2023-03-11T14:11:19.513Z,101039.97
2023-03-11T14:16:31.479Z,101048.63
2023-03-11T14:21:37.265Z,101051.13
2023-03-11T14:26:45.272Z,101054.16
2023-03-11T14:31:49.684Z,101061.06
2023-03-11T14:36:57.430Z,101059.25
2023-03-11T14:42:13.728Z,101062.66
2023-03-11T14:47:24.361Z,101059.44
2023-03-11T14:52:39.929Z,101065.31
2023-03-11T14:57:49.231Z,101062.91
2023-03-11T15:03:02.903Z,101055.31
2023-03-11T15:08:08.556Z,101061.22
2023-03-11T15:13:17.154Z,101063.13
2023-03-11T15:18:26.584Z,101064.75
2023-03-11T15:23:33.179Z,101058.16
2023-03-11T15:28:39.364Z,101059.25
2023-03-11T15:33:43.756Z,101059.13
2023-03-11T15:38:49.520Z,101071.97
2023-03-11T15:43:54.888Z,101060.69
2023-03-11T15:48:58.969Z,101065.16
2023-03-11T15:54:04.687Z,101059.13
2023-03-11T15:59:14.009Z,101071.06
2023-03-11T16:04:20.581Z,101056.31
2023-03-11T16:09:26.353Z,101074.09
2023-03-11T16:14:30.516Z,101056.56
2023-03-11T16:19:34.625Z,101062.78
2023-03-11T16:24:40.248Z,101055.16
2023-03-11T16:29:44.499Z,101068.03
2023-03-11T16:34:48.737Z,101061.31
2023-03-11T16:39:54.247Z,101047.94
2023-03-11T16:44:58.329Z,101049.00
2023-03-11T16:50:02.393Z,101054.88
2023-03-11T16:55:09.727Z,101058.16
2023-03-11T17:00:15.706Z,101055.56
2023-03-11T17:05:20.265Z,101047.13
2023-03-11T17:10:25.754Z,101058.66
2023-03-11T17:15:30.037Z,101071.25
2023-03-11T17:20:34.474Z,101059.75
2023-03-11T17:25:43.326Z,101045.00
2023-03-11T17:30:47.431Z,101059.50
2023-03-11T17:35:51.723Z,101064.06
2023-03-11T17:40:57.696Z,101072.22
2023-03-11T17:46:01.763Z,101085.84
2023-03-11T17:51:10.271Z,101082.44
2023-03-11T17:56:19.264Z,101099.66
2023-03-11T18:01:25.157Z,101103.94
2023-03-11T18:06:29.776Z,101109.53
2023-03-11T18:11:35.304Z,101104.03
2023-03-11T18:16:39.684Z,101101.84
2023-03-11T18:21:44.550Z,101102.22
2023-03-11T18:26:49.917Z,101116.25
2023-03-11T18:31:54.244Z,101124.06
2023-03-11T18:36:58.332Z,101118.38
2023-03-11T18:42:04.619Z,101118.88
2023-03-11T18:47:08.990Z,101129.72
2023-03-11T18:52:13.041Z,101139.69
2023-03-11T18:57:18.476Z,101136.69
2023-03-11T19:02:22.482Z,101142.28
2023-03-11T19:07:26.717Z,101136.78
2023-03-11T19:12:34.330Z,101140.66
2023-03-11T19:17:38.470Z,101147.00
2023-03-11T19:22:42.550Z,101154.16
2023-03-11T19:27:48.185Z,101139.19
2023-03-11T19:32:53.108Z,101132.56
2023-03-11T19:37:59.222Z,101138.81
2023-03-11T19:43:05.929Z,101136.50
2023-03-11T19:48:12.730Z,101140.84
2023-03-11T19:53:17.926Z,101142.59
2023-03-11T19:58:24.985Z,101147.56
2023-03-11T20:03:29.247Z,101139.34
2023-03-11T20:08:36.626Z,101144.41
2023-03-11T20:13:44.015Z,101130.72
2023-03-11T20:18:51.149Z,101141.03
2023-03-11T20:23:56.147Z,101138.91
2023-03-11T20:29:01.604Z,101140.72
2023-03-11T20:34:05.956Z,101142.31
2023-03-11T20:39:10.770Z,101133.09
2023-03-11T20:44:16.343Z,101123.72
2023-03-11T20:49:20.507Z,101130.72
2023-03-11T20:54:24.611Z,101124.09
2023-03-11T20:59:30.143Z,101124.19
2023-03-11T21:04:35.555Z,101125.00
2023-03-11T21:09:39.710Z,101133.38
2023-03-11T21:14:45.271Z,101125.56
2023-03-11T21:19:49.400Z,101130.34
2023-03-11T21:24:54.106Z,101124.25
2023-03-11T21:30:00.815Z,101116.19
2023-03-11T21:35:06.094Z,101115.41
2023-03-11T21:40:12.691Z,101122.16
2023-03-11T21:45:18.538Z,101120.19
2023-03-11T21:50:22.605Z,101109.59
2023-03-11T21:55:26.788Z,101109.81
2023-03-11T22:00:32.339Z,101112.28
2023-03-11T22:05:36.401Z,101117.22
2023-03-11T22:10:40.399Z,101115.94
2023-03-11T22:15:46.113Z,101094.38
2023-03-11T22:20:50.230Z,101113.94
2023-03-11T22:25:54.455Z,101100.78
2023-03-11T22:30:59.840Z,101105.31
2023-03-11T22:36:04.812Z,101101.97
2023-03-11T22:41:09.497Z,101088.09
2023-03-11T22:46:15.518Z,101087.47
2023-03-11T22:51:19.668Z,101079.00
2023-03-11T22:56:23.685Z,101081.28
2023-03-11T23:01:29.220Z,101082.19
2023-03-11T23:06:33.266Z,101079.44
2023-03-11T23:11:37.465Z,101074.28
2023-03-11T23:16:43.101Z,101071.97
2023-03-11T23:21:47.306Z,101061.31
2023-03-11T23:26:51.323Z,101066.84
2023-03-11T23:31:56.803Z,101057.25
2023-03-11T23:37:00.896Z,101070.16
2023-03-11T23:42:18.591Z,101058.03
2023-03-11T23:47:30.476Z,101062.31
2023-03-11T23:52:34.809Z,101064.97
2023-03-11T23:57:40.135Z,101071.91
